Time,TemperatureF,DewpointF,PressureIn,WindDirection,WindDirectionDegrees,WindSpeedMPH,WindSpeedGustMPH,Humidity,HourlyPrecipIn,Conditions,Clouds,dailyrainin,SoftwareType,DateUTC
2013-02-19 00:05:00,35.4,22.1,29.89,South,180,4.7,-999.0,58,-99.99,,,0.00,Acu-Link.com,2013-02-19 05:05:00,
2013-02-19 00:20:00,36.0,22.7,29.88,ESE,112,3.7,-999.0,58,-99.99,,,0.00,Acu-Link.com,2013-02-19 05:20:00,
2013-02-19 00:35:00,35.4,22.5,29.88,SSW,202,4.2,-999.0,59,-99.99,,,0.00,Acu-Link.com,2013-02-19 05:35:00,
2013-02-19 00:50:00,35.2,22.3,29.88,ESE,112,4.7,-999.0,59,-99.99,,,0.00,Acu-Link.com,2013-02-19 05:50:00,
2013-02-19 01:06:00,35.6,22.7,29.87,SE,135,4.7,-999.0,59,-99.99,,,0.00,Acu-Link.com,2013-02-19 06:06:00,
2013-02-19 01:21:00,37.4,23.6,29.87,NNE,22,5.8,-999.0,57,-99.99,,,0.00,Acu-Link.com,2013-02-19 06:21:00,
2013-02-19 01:36:00,37.6,23.8,29.86,South,180,4.7,-999.0,57,-99.99,,,0.00,Acu-Link.com,2013-02-19 06:36:00,
2013-02-19 01:51:00,36.3,23.4,29.85,ESE,112,6.3,-999.0,59,-99.99,,,0.00,Acu-Link.com,2013-02-19 06:51:00,
2013-02-19 02:07:00,35.4,22.9,29.84,SE,135,7.3,-999.0,60,-99.99,,,0.00,Acu-Link.com,2013-02-19 07:07:00,
2013-02-19 02:22:00,34.9,22.8,29.82,ESE,112,2.7,-999.0,61,-99.99,,,0.00,Acu-Link.com,2013-02-19 07:22:00,
2013-02-19 02:37:00,34.9,22.8,29.84,SW,225,4.2,-999.0,61,-99.99,,,0.00,Acu-Link.com,2013-02-19 07:37:00,
2013-02-19 02:52:00,35.2,22.7,29.82,WNW,292,3.7,-999.0,60,-99.99,,,0.00,Acu-Link.com,2013-02-19 07:52:00,
2013-02-19 03:07:00,35.4,23.3,29.80,ESE,112,6.3,-999.0,61,-99.99,,,0.00,Acu-Link.com,2013-02-19 08:07:00,
2013-02-19 03:23:00,35.1,23.0,29.79,SSE,157,5.8,-999.0,61,-99.99,,,0.00,Acu-Link.com,2013-02-19 08:23:00,
2013-02-19 03:38:00,35.1,23.4,29.79,NE,45,5.8,-999.0,62,-99.99,,,0.00,Acu-Link.com,2013-02-19 08:38:00,
2013-02-19 03:53:00,34.7,23.0,29.79,WNW,292,2.7,-999.0,62,-99.99,,,0.00,Acu-Link.com,2013-02-19 08:53:00,
2013-02-19 04:17:00,34.7,23.0,29.79,South,180,2.2,-999.0,62,-99.99,,,0.00,Acu-Link.com,2013-02-19 09:17:00,
2013-02-19 04:32:00,36.3,27.8,29.77,SSE,157,3.7,-999.0,71,-99.99,,,0.00,Acu-Link.com,2013-02-19 09:32:00,
2013-02-19 04:47:00,36.3,27.8,29.76,ENE,67,3.2,-999.0,71,-99.99,,,0.00,Acu-Link.com,2013-02-19 09:47:00,
2013-02-19 05:02:00,36.0,27.5,29.78,ESE,112,1.1,-999.0,71,-99.99,,,0.00,Acu-Link.com,2013-02-19 10:02:00,
2013-02-19 05:17:00,39.0,27.5,29.77,SE,135,2.7,-999.0,63,-99.99,,,0.00,Acu-Link.com,2013-02-19 10:17:00,
2013-02-19 05:33:00,39.9,28.0,29.77,NE,45,4.2,-999.0,62,-99.99,,,0.00,Acu-Link.com,2013-02-19 10:33:00,
2013-02-19 05:48:00,39.4,27.9,29.73,South,180,2.2,-999.0,63,-99.99,,,0.00,Acu-Link.com,2013-02-19 10:48:00,
2013-02-19 06:03:00,37.9,26.1,29.74,ESE,112,4.7,-999.0,62,-99.99,,,0.00,Acu-Link.com,2013-02-19 11:03:00,
2013-02-19 06:18:00,37.9,27.6,29.75,SSW,202,6.8,-999.0,66,-99.99,,,0.00,Acu-Link.com,2013-02-19 11:18:00,
2013-02-19 06:34:00,37.9,29.7,29.74,South,180,2.7,-999.0,72,-99.99,,,0.00,Acu-Link.com,2013-02-19 11:34:00,
2013-02-19 06:49:00,35.6,32.7,29.74,South,180,2.2,-999.0,89,-99.99,,,0.00,Acu-Link.com,2013-02-19 11:49:00,
2013-02-19 07:04:00,34.7,32.9,29.72,SSE,157,1.1,-999.0,93,-99.99,,,0.00,Acu-Link.com,2013-02-19 12:04:00,
2013-02-19 07:19:00,33.6,32.6,29.71,SE,135,2.2,-999.0,96,-99.99,,,0.00,Acu-Link.com,2013-02-19 12:19:00,
2013-02-19 07:35:00,34.2,33.7,29.70,SSW,202,5.8,-999.0,98,-99.99,,,0.01,Acu-Link.com,2013-02-19 12:35:00,
2013-02-19 07:50:00,35.1,34.6,29.71,ESE,112,5.8,-999.0,98,-99.99,,,0.01,Acu-Link.com,2013-02-19 12:50:00,
2013-02-19 08:05:00,35.8,35.0,29.71,SE,135,3.7,-999.0,97,-99.99,,,0.02,Acu-Link.com,2013-02-19 13:05:00,
2013-02-19 08:20:00,35.6,34.8,29.70,ESE,112,1.7,-999.0,97,-99.99,,,0.02,Acu-Link.com,2013-02-19 13:20:00,
2013-02-19 08:35:00,35.8,35.0,29.69,ESE,112,3.7,-999.0,97,-99.99,,,0.02,Acu-Link.com,2013-02-19 13:35:00,
2013-02-19 08:51:00,36.9,35.6,29.69,SSE,157,3.2,-999.0,95,-99.99,,,0.02,Acu-Link.com,2013-02-19 13:51:00,
2013-02-19 09:09:00,37.0,35.7,29.68,SSE,157,5.3,-999.0,95,-99.99,,,0.02,Acu-Link.com,2013-02-19 14:09:00,
2013-02-19 09:25:00,37.8,36.0,29.68,West,270,7.3,-999.0,93,-99.99,,,0.02,Acu-Link.com,2013-02-19 14:25:00,
2013-02-19 09:40:00,38.1,36.3,29.67,WNW,292,3.7,-999.0,93,-99.99,,,0.02,Acu-Link.com,2013-02-19 14:40:00,
2013-02-19 09:55:00,38.5,36.7,29.67,ESE,112,6.8,-999.0,93,-99.99,,,0.02,Acu-Link.com,2013-02-19 14:55:00,
2013-02-19 10:10:00,38.8,37.0,29.66,SSE,157,5.3,-999.0,93,-99.99,,,0.02,Acu-Link.com,2013-02-19 15:10:00,
2013-02-19 10:25:00,38.7,36.9,29.67,SSW,202,4.7,-999.0,93,-99.99,,,0.02,Acu-Link.com,2013-02-19 15:25:00,
2013-02-19 10:41:00,37.9,36.6,29.67,West,270,3.2,-999.0,95,-99.99,,,0.02,Acu-Link.com,2013-02-19 15:41:00,
2013-02-19 10:56:00,37.2,36.4,29.66,SW,225,6.3,-999.0,97,-99.99,,,0.03,Acu-Link.com,2013-02-19 15:56:00,
2013-02-19 11:11:00,37.4,36.9,29.66,NE,45,3.7,-999.0,98,-99.99,,,0.06,Acu-Link.com,2013-02-19 16:11:00,
2013-02-19 11:27:00,37.9,37.1,29.66,SSW,202,7.3,-999.0,97,-99.99,,,0.06,Acu-Link.com,2013-02-19 16:27:00,
2013-02-19 11:42:00,38.1,37.3,29.65,North,0,7.3,-999.0,97,-99.99,,,0.06,Acu-Link.com,2013-02-19 16:42:00,
2013-02-19 11:58:00,38.5,37.5,29.64,West,270,4.2,-999.0,96,-99.99,,,0.07,Acu-Link.com,2013-02-19 16:58:00,
2013-02-19 12:13:00,38.1,37.3,29.63,SSE,157,3.7,-999.0,97,-99.99,,,0.07,Acu-Link.com,2013-02-19 17:13:00,
2013-02-19 12:28:00,39.0,37.7,29.61,SSE,157,11.4,-999.0,95,-99.99,,,0.08,Acu-Link.com,2013-02-19 17:28:00,
2013-02-19 12:43:00,39.2,37.6,29.60,West,270,4.7,-999.0,94,-99.99,,,0.08,Acu-Link.com,2013-02-19 17:43:00,
2013-02-19 12:58:00,39.9,37.5,29.61,West,270,4.2,-999.0,91,-99.99,,,0.08,Acu-Link.com,2013-02-19 17:58:00,
2013-02-19 13:14:00,40.5,37.2,29.59,SSE,157,9.9,-999.0,88,-99.99,,,0.08,Acu-Link.com,2013-02-19 18:14:00,
2013-02-19 13:29:00,40.1,36.8,29.58,SSW,202,5.3,-999.0,88,-99.99,,,0.08,Acu-Link.com,2013-02-19 18:29:00,
2013-02-19 13:44:00,39.7,36.7,29.57,SE,135,5.8,-999.0,89,-99.99,,,0.08,Acu-Link.com,2013-02-19 18:44:00,
2013-02-19 13:59:00,39.0,36.6,29.56,WSW,247,3.7,-999.0,91,-99.99,,,0.08,Acu-Link.com,2013-02-19 18:59:00,
2013-02-19 14:15:00,35.8,35.5,29.60,WSW,247,6.8,-999.0,99,-99.99,,,0.08,Acu-Link.com,2013-02-19 19:15:00,
2013-02-19 14:30:00,34.9,33.6,29.60,WSW,247,6.3,-999.0,95,-99.99,,,0.12,Acu-Link.com,2013-02-19 19:30:00,
2013-02-19 14:45:00,34.2,32.9,29.61,SE,135,10.4,-999.0,95,-99.99,,,0.13,Acu-Link.com,2013-02-19 19:45:00,
2013-02-19 15:00:00,33.6,32.3,29.61,WNW,292,7.3,-999.0,95,-99.99,,,0.13,Acu-Link.com,2013-02-19 20:00:00,
2013-02-19 15:15:00,34.0,33.0,29.61,WSW,247,7.3,-999.0,96,-99.99,,,0.13,Acu-Link.com,2013-02-19 20:15:00,
2013-02-19 15:31:00,33.1,32.1,29.63,WSW,247,8.9,-999.0,96,-99.99,,,0.14,Acu-Link.com,2013-02-19 20:31:00,
2013-02-19 15:46:00,33.3,30.1,29.63,West,270,16.6,-999.0,88,-99.99,,,0.14,Acu-Link.com,2013-02-19 20:46:00,
2013-02-19 16:01:00,33.1,28.8,29.63,West,270,13.5,-999.0,84,-99.99,,,0.14,Acu-Link.com,2013-02-19 21:01:00,
2013-02-19 16:16:00,33.1,28.8,29.63,WNW,292,7.3,-999.0,84,-99.99,,,0.14,Acu-Link.com,2013-02-19 21:16:00,
2013-02-19 16:31:00,32.9,28.3,29.64,West,270,12.5,-999.0,83,-99.99,,,0.14,Acu-Link.com,2013-02-19 21:31:00,
2013-02-19 16:47:00,32.7,27.5,29.64,WNW,292,5.8,-999.0,81,-99.99,,,0.14,Acu-Link.com,2013-02-19 21:47:00,
2013-02-19 17:02:00,32.4,26.9,29.65,SW,225,13.0,-999.0,80,-99.99,,,0.14,Acu-Link.com,2013-02-19 22:02:00,
2013-02-19 17:17:00,32.2,27.0,29.65,West,270,8.3,-999.0,81,-99.99,,,0.14,Acu-Link.com,2013-02-19 22:17:00,
2013-02-19 17:32:00,31.6,26.5,29.66,SW,225,7.8,-999.0,81,-99.99,,,0.14,Acu-Link.com,2013-02-19 22:32:00,
2013-02-19 17:48:00,31.1,26.0,29.68,WSW,247,7.3,-999.0,81,-99.99,,,0.14,Acu-Link.com,2013-02-19 22:48:00,
2013-02-19 18:03:00,30.4,25.6,29.68,SSW,202,10.9,-999.0,82,-99.99,,,0.14,Acu-Link.com,2013-02-19 23:03:00,
2013-02-19 18:18:00,29.8,25.0,29.69,West,270,8.9,-999.0,82,-99.99,,,0.14,Acu-Link.com,2013-02-19 23:18:00,
2013-02-19 18:33:00,29.3,25.4,29.70,WSW,247,10.9,-999.0,85,-99.99,,,0.14,Acu-Link.com,2013-02-19 23:33:00,
2013-02-19 18:48:00,27.9,26.4,29.70,West,270,3.7,-999.0,94,-99.99,,,0.14,Acu-Link.com,2013-02-19 23:48:00,
2013-02-19 19:04:00,27.1,26.9,29.71,West,270,5.8,-999.0,99,-99.99,,,0.14,Acu-Link.com,2013-02-20 00:04:00,
2013-02-19 19:19:00,26.8,26.1,29.72,WSW,247,9.9,-999.0,97,-99.99,,,0.14,Acu-Link.com,2013-02-20 00:19:00,
2013-02-19 19:34:00,26.6,23.5,29.72,West,270,11.4,-999.0,88,-99.99,,,0.14,Acu-Link.com,2013-02-20 00:34:00,
2013-02-19 19:49:00,27.0,22.5,29.71,WSW,247,9.4,-999.0,83,-99.99,,,0.14,Acu-Link.com,2013-02-20 00:49:00,
2013-02-19 20:04:00,26.6,23.3,29.72,West,270,13.5,-999.0,87,-99.99,,,0.14,Acu-Link.com,2013-02-20 01:04:00,
2013-02-19 20:20:00,25.3,24.6,29.73,West,270,6.3,-999.0,97,-99.99,,,0.14,Acu-Link.com,2013-02-20 01:20:00,
2013-02-19 20:35:00,24.6,24.4,29.73,WSW,247,10.4,-999.0,99,-99.99,,,0.14,Acu-Link.com,2013-02-20 01:35:00,
2013-02-19 20:50:00,24.1,23.9,29.73,West,270,9.9,-999.0,99,-99.99,,,0.14,Acu-Link.com,2013-02-20 01:50:00,
2013-02-19 21:05:00,23.9,22.7,29.72,WSW,247,13.5,-999.0,95,-99.99,,,0.14,Acu-Link.com,2013-02-20 02:05:00,
2013-02-19 21:21:00,23.7,22.7,29.73,SSW,202,8.9,-999.0,96,-99.99,,,0.14,Acu-Link.com,2013-02-20 02:21:00,
2013-02-19 21:36:00,23.4,23.2,29.74,West,270,8.9,-999.0,99,-99.99,,,0.14,Acu-Link.com,2013-02-20 02:36:00,
2013-02-19 21:51:00,23.4,23.2,29.73,West,270,7.8,-999.0,99,-99.99,,,0.14,Acu-Link.com,2013-02-20 02:51:00,
2013-02-19 22:06:00,22.8,22.6,29.74,WSW,247,6.8,-999.0,99,-99.99,,,0.14,Acu-Link.com,2013-02-20 03:06:00,
2013-02-19 22:21:00,22.6,22.4,29.74,West,270,8.9,-999.0,99,-99.99,,,0.14,Acu-Link.com,2013-02-20 03:21:00,
2013-02-19 22:37:00,22.3,22.1,29.74,West,270,8.9,-999.0,99,-99.99,,,0.14,Acu-Link.com,2013-02-20 03:37:00,
2013-02-19 22:52:00,21.9,21.4,29.74,West,270,12.5,-999.0,98,-99.99,,,0.14,Acu-Link.com,2013-02-20 03:52:00,
2013-02-19 23:07:00,21.0,20.3,29.73,West,270,13.5,-999.0,97,-99.99,,,0.14,Acu-Link.com,2013-02-20 04:07:00,
2013-02-19 23:22:00,20.7,19.7,29.72,West,270,12.5,-999.0,96,-99.99,,,0.14,Acu-Link.com,2013-02-20 04:22:00,
2013-02-19 23:37:00,20.7,19.3,29.72,WSW,247,10.9,-999.0,94,-99.99,,,0.14,Acu-Link.com,2013-02-20 04:37:00,
2013-02-19 23:53:00,20.3,18.4,29.72,West,270,12.5,-999.0,92,-99.99,,,0.14,Acu-Link.com,2013-02-20 04:53:00,